createdAt,value
2023-04-28T00:00:02.123Z,26.48
2023-04-28T00:00:32.158Z,26.47
2023-04-28T00:01:02.198Z,26.46
2023-04-28T00:01:32.214Z,26.46
2023-04-28T00:02:02.255Z,26.46
2023-04-28T00:02:32.332Z,26.47
2023-04-28T00:03:02.470Z,26.47
2023-04-28T00:03:32.580Z,26.48
2023-04-28T00:04:02.677Z,26.44
2023-04-28T00:04:32.636Z,26.46
2023-04-28T00:05:02.759Z,26.46
2023-04-28T00:05:32.743Z,26.47
2023-04-28T00:06:02.680Z,26.46
2023-04-28T00:06:32.717Z,26.44
2023-04-28T00:07:02.747Z,26.47
2023-04-28T00:07:32.869Z,26.47
2023-04-28T00:08:02.978Z,26.46
2023-04-28T00:08:33.090Z,26.46
2023-04-28T00:09:03.204Z,26.46
2023-04-28T00:09:33.351Z,26.47
2023-04-28T00:10:03.433Z,26.47
2023-04-28T00:10:33.543Z,26.46
2023-04-28T00:11:03.661Z,26.46
2023-04-28T00:11:33.773Z,26.47
2023-04-28T00:12:03.762Z,26.46
2023-04-28T00:12:33.874Z,26.47
2023-04-28T00:13:03.990Z,26.44
2023-04-28T00:13:34.106Z,26.46
2023-04-28T00:14:04.211Z,26.46
2023-04-28T00:14:34.327Z,26.46
2023-04-28T00:15:04.444Z,26.44
2023-04-28T00:15:34.561Z,26.46
2023-04-28T00:16:04.606Z,26.46
2023-04-28T00:16:34.619Z,26.44
2023-04-28T00:17:04.610Z,26.44
2023-04-28T00:17:34.693Z,26.44
2023-04-28T00:18:04.777Z,26.43
2023-04-28T00:18:34.716Z,26.44
2023-04-28T00:19:04.737Z,26.43
2023-04-28T00:19:34.764Z,26.43
2023-04-28T00:20:04.826Z,26.44
2023-04-28T00:20:34.851Z,26.44
2023-04-28T00:21:04.870Z,26.42
2023-04-28T00:21:34.951Z,26.42
2023-04-28T00:22:04.991Z,26.43
2023-04-28T00:22:35.032Z,26.44
2023-04-28T00:23:05.042Z,26.43
2023-04-28T00:23:35.121Z,26.40
2023-04-28T00:24:05.158Z,26.43
2023-04-28T00:24:35.173Z,26.40
2023-04-28T00:25:05.222Z,26.43
2023-04-28T00:25:35.243Z,26.43
2023-04-28T00:26:05.265Z,26.42
2023-04-28T00:26:35.292Z,26.40
2023-04-28T00:27:05.312Z,26.42
2023-04-28T00:27:35.352Z,26.42
2023-04-28T00:28:05.363Z,26.40
2023-04-28T00:28:35.399Z,26.40
2023-04-28T00:29:05.411Z,26.43
2023-04-28T00:29:35.429Z,26.40
2023-04-28T00:30:05.495Z,26.42
2023-04-28T00:30:35.502Z,26.40
2023-04-28T00:31:05.511Z,26.42
2023-04-28T00:31:35.609Z,26.42
2023-04-28T00:32:05.743Z,26.39
2023-04-28T00:32:35.755Z,26.37
2023-04-28T00:33:05.808Z,26.42
2023-04-28T00:33:35.822Z,26.42
2023-04-28T00:34:05.848Z,26.40
2023-04-28T00:34:35.872Z,26.39
2023-04-28T00:35:05.900Z,26.42
2023-04-28T00:35:35.912Z,26.40
2023-04-28T00:36:05.944Z,26.42
2023-04-28T00:36:35.978Z,26.40
2023-04-28T00:37:06.008Z,26.39
2023-04-28T00:37:36.017Z,26.39
2023-04-28T00:38:06.042Z,26.40
2023-04-28T00:38:36.064Z,26.39
2023-04-28T00:39:06.096Z,26.37
2023-04-28T00:39:36.121Z,26.40
2023-04-28T00:40:06.144Z,26.39
2023-04-28T00:40:36.197Z,26.42
2023-04-28T00:41:06.198Z,26.42
2023-04-28T00:41:36.221Z,26.39
2023-04-28T00:42:06.254Z,26.40
2023-04-28T00:42:36.269Z,26.39
2023-04-28T00:43:06.296Z,26.39
2023-04-28T00:43:36.320Z,26.40
2023-04-28T00:44:06.340Z,26.39
2023-04-28T00:44:36.363Z,26.39
2023-04-28T00:45:06.388Z,26.40
2023-04-28T00:45:36.465Z,26.43
2023-04-28T00:46:06.563Z,26.40
2023-04-28T00:46:36.649Z,26.39
2023-04-28T00:47:06.658Z,26.39
2023-04-28T00:47:36.713Z,26.37
2023-04-28T00:48:06.734Z,26.42
2023-04-28T00:48:36.763Z,26.39
2023-04-28T00:49:06.785Z,26.39
2023-04-28T00:49:36.811Z,26.37
2023-04-28T00:50:06.885Z,26.40
2023-04-28T00:50:36.890Z,26.39
2023-04-28T00:51:06.942Z,26.40
2023-04-28T00:51:36.967Z,26.40
2023-04-28T00:52:06.993Z,26.39
2023-04-28T00:52:37.020Z,26.40
2023-04-28T00:53:07.077Z,26.37
2023-04-28T00:53:37.085Z,26.39
2023-04-28T00:54:07.137Z,26.40
2023-04-28T00:54:37.187Z,26.39
2023-04-28T00:55:07.214Z,26.42
2023-04-28T00:55:37.234Z,26.39
2023-04-28T00:56:07.297Z,26.37
2023-04-28T00:56:37.297Z,26.37
2023-04-28T00:57:07.327Z,26.37
2023-04-28T00:57:37.349Z,26.39
2023-04-28T00:58:07.414Z,26.42
2023-04-28T00:58:37.422Z,26.39
2023-04-28T00:59:07.450Z,26.37
2023-04-28T00:59:37.476Z,26.39
2023-04-28T01:00:07.509Z,26.39
2023-04-28T01:00:37.528Z,26.39
2023-04-28T01:01:07.857Z,26.42
2023-04-28T01:01:37.745Z,26.40
2023-04-28T01:02:38.096Z,26.39
2023-04-28T01:03:08.236Z,26.39
2023-04-28T01:03:38.264Z,26.37
2023-04-28T01:04:08.607Z,26.40
2023-04-28T01:04:38.278Z,26.42
2023-04-28T01:05:08.267Z,26.36
2023-04-28T01:05:38.291Z,26.39
2023-04-28T01:06:08.340Z,26.37
2023-04-28T01:06:38.369Z,26.40
2023-04-28T01:07:08.386Z,26.39
2023-04-28T01:07:38.534Z,26.39
2023-04-28T01:08:08.508Z,26.39
2023-04-28T01:08:38.605Z,26.37
2023-04-28T01:09:08.720Z,26.40
2023-04-28T01:09:38.827Z,26.36
2023-04-28T01:10:08.940Z,26.39
2023-04-28T01:10:39.051Z,26.39
2023-04-28T01:11:09.182Z,26.37
2023-04-28T01:11:39.187Z,26.37
2023-04-28T01:12:09.292Z,26.39
2023-04-28T01:12:39.285Z,26.36
2023-04-28T01:13:09.397Z,26.40
2023-04-28T01:13:39.510Z,26.37
2023-04-28T01:14:09.640Z,26.36
2023-04-28T01:14:39.738Z,26.36
2023-04-28T01:15:09.852Z,26.37
2023-04-28T01:15:39.956Z,26.36
2023-04-28T01:16:10.111Z,26.39
2023-04-28T01:16:40.123Z,26.37
2023-04-28T01:17:10.120Z,26.36
2023-04-28T01:17:40.149Z,26.37
2023-04-28T01:18:10.250Z,26.36
2023-04-28T01:18:40.189Z,26.36
2023-04-28T01:19:10.218Z,26.37
2023-04-28T01:19:40.256Z,26.37
2023-04-28T01:20:10.281Z,26.37
2023-04-28T01:20:40.332Z,26.37
2023-04-28T01:21:10.337Z,26.36
2023-04-28T01:21:40.359Z,26.36
2023-04-28T01:22:10.388Z,26.34
2023-04-28T01:22:40.411Z,26.37
2023-04-28T01:23:10.446Z,26.37
2023-04-28T01:23:40.482Z,26.37
2023-04-28T01:24:10.507Z,26.36
2023-04-28T01:24:40.537Z,26.36
2023-04-28T01:25:10.564Z,26.37
2023-04-28T01:25:40.591Z,26.36
2023-04-28T01:26:10.623Z,26.37
2023-04-28T01:26:40.648Z,26.37
2023-04-28T01:27:10.710Z,26.36
2023-04-28T01:27:40.713Z,26.36
2023-04-28T01:28:10.742Z,26.37
2023-04-28T01:28:40.760Z,26.37
2023-04-28T01:29:10.786Z,26.34
2023-04-28T01:29:40.868Z,26.37
2023-04-28T01:30:10.826Z,26.36
2023-04-28T01:30:40.853Z,26.36
2023-04-28T01:31:10.975Z,26.39
2023-04-28T01:31:40.975Z,26.37
2023-04-28T01:32:10.937Z,26.37
2023-04-28T01:32:40.988Z,26.36
2023-04-28T01:33:11.062Z,26.34
2023-04-28T01:33:41.109Z,26.39
2023-04-28T01:34:11.151Z,26.39
2023-04-28T01:34:41.164Z,26.37
2023-04-28T01:35:11.191Z,26.36
2023-04-28T01:35:41.220Z,26.36
2023-04-28T01:36:11.263Z,26.39
2023-04-28T01:36:41.295Z,26.36
2023-04-28T01:37:11.309Z,26.36
2023-04-28T01:37:41.336Z,26.34
2023-04-28T01:38:11.353Z,26.34
2023-04-28T01:38:41.376Z,26.36
2023-04-28T01:39:11.409Z,26.36
2023-04-28T01:39:41.428Z,26.36
2023-04-28T01:40:11.462Z,26.34
2023-04-28T01:40:41.473Z,26.34
2023-04-28T01:41:11.513Z,26.34
2023-04-28T01:41:41.545Z,26.33
2023-04-28T01:42:11.558Z,26.36
2023-04-28T01:42:41.611Z,26.37
2023-04-28T01:43:11.613Z,26.37
2023-04-28T01:43:41.637Z,26.34
2023-04-28T01:44:11.660Z,26.36
2023-04-28T01:44:41.681Z,26.36
2023-04-28T01:45:11.710Z,26.34
2023-04-28T01:45:41.737Z,26.34
2023-04-28T01:46:11.850Z,26.34
2023-04-28T01:46:41.917Z,26.34
2023-04-28T01:47:11.948Z,26.34
2023-04-28T01:47:42.007Z,26.34
2023-04-28T01:48:12.155Z,26.34
2023-04-28T01:48:42.060Z,26.34
2023-04-28T01:49:12.109Z,26.36
2023-04-28T01:49:42.114Z,26.33
2023-04-28T01:50:12.142Z,26.36
2023-04-28T01:50:42.165Z,26.34
2023-04-28T01:51:12.209Z,26.36
2023-04-28T01:51:42.236Z,26.36
2023-04-28T01:52:12.258Z,26.36
2023-04-28T01:52:42.289Z,26.37
2023-04-28T01:53:12.315Z,26.34
2023-04-28T01:53:42.336Z,26.36
2023-04-28T01:54:12.373Z,26.34
2023-04-28T01:54:42.418Z,26.36
2023-04-28T01:55:12.445Z,26.34
2023-04-28T01:55:42.473Z,26.34
2023-04-28T01:56:12.505Z,26.34
2023-04-28T01:56:42.529Z,26.36
2023-04-28T01:57:12.633Z,26.34
2023-04-28T01:57:42.722Z,26.33
2023-04-28T01:58:12.772Z,26.34
2023-04-28T01:58:42.786Z,26.34
2023-04-28T01:59:12.803Z,26.34
2023-04-28T01:59:42.828Z,26.34
2023-04-28T02:00:12.850Z,26.33
2023-04-28T02:00:42.873Z,26.34
2023-04-28T02:01:13.066Z,26.34
2023-04-28T02:01:43.012Z,26.33
2023-04-28T02:02:13.049Z,26.36
2023-04-28T02:02:43.109Z,26.34
2023-04-28T02:03:13.215Z,26.32
2023-04-28T02:03:43.384Z,26.32
2023-04-28T02:04:13.590Z,26.34
2023-04-28T02:04:43.408Z,26.33
2023-04-28T02:05:13.467Z,26.34
2023-04-28T02:05:43.485Z,26.33
2023-04-28T02:06:13.524Z,26.33
2023-04-28T02:06:43.548Z,26.34
2023-04-28T02:07:13.563Z,26.34
2023-04-28T02:07:43.675Z,26.34
2023-04-28T02:08:13.785Z,26.34
2023-04-28T02:08:43.893Z,26.33
2023-04-28T02:09:14.024Z,26.34
2023-04-28T02:09:44.130Z,26.33
2023-04-28T02:10:14.269Z,26.33
2023-04-28T02:10:44.265Z,26.34
2023-04-28T02:11:14.278Z,26.32
2023-04-28T02:11:44.300Z,26.32
2023-04-28T02:12:14.282Z,26.33
2023-04-28T02:12:44.343Z,26.36
2023-04-28T02:13:14.344Z,26.34
2023-04-28T02:13:44.457Z,26.34
2023-04-28T02:14:14.751Z,26.33
2023-04-28T02:14:44.556Z,26.34
2023-04-28T02:15:14.669Z,26.33
2023-04-28T02:15:44.816Z,26.34
2023-04-28T02:16:14.841Z,26.33
2023-04-28T02:16:44.830Z,26.36
2023-04-28T02:17:14.938Z,26.33
2023-04-28T02:17:44.986Z,26.33
2023-04-28T02:18:15.036Z,26.32
2023-04-28T02:18:45.063Z,26.33
2023-04-28T02:19:15.084Z,26.33
2023-04-28T02:19:45.097Z,26.33
2023-04-28T02:20:15.136Z,26.33
2023-04-28T02:20:45.166Z,26.36
2023-04-28T02:21:15.189Z,26.36
2023-04-28T02:21:45.207Z,26.36
2023-04-28T02:22:15.231Z,26.34
2023-04-28T02:22:45.259Z,26.32
2023-04-28T02:23:15.283Z,26.36
2023-04-28T02:23:45.305Z,26.34
2023-04-28T02:24:15.572Z,26.34
2023-04-28T02:24:45.385Z,26.33
2023-04-28T02:25:15.411Z,26.32
2023-04-28T02:25:45.442Z,26.33
2023-04-28T02:26:15.471Z,26.36
2023-04-28T02:26:45.497Z,26.32
2023-04-28T02:27:15.520Z,26.34
2023-04-28T02:27:45.553Z,26.33
2023-04-28T02:28:15.572Z,26.34
2023-04-28T02:28:45.598Z,26.33
2023-04-28T02:29:15.654Z,26.33
2023-04-28T02:29:45.661Z,26.34
2023-04-28T02:30:15.694Z,26.33
2023-04-28T02:30:45.715Z,26.34
2023-04-28T02:31:15.758Z,26.34
2023-04-28T02:31:45.835Z,26.34
2023-04-28T02:32:15.838Z,26.33
2023-04-28T02:32:45.900Z,26.30
2023-04-28T02:33:15.979Z,26.36
2023-04-28T02:33:46.007Z,26.34
2023-04-28T02:34:16.279Z,26.32
2023-04-28T02:34:46.055Z,26.33
2023-04-28T02:35:16.147Z,26.33
2023-04-28T02:35:46.145Z,26.33
2023-04-28T02:36:16.172Z,26.33
2023-04-28T02:36:46.188Z,26.33
2023-04-28T02:37:16.212Z,26.30
2023-04-28T02:37:46.233Z,26.33
2023-04-28T02:38:16.262Z,26.34
2023-04-28T02:38:46.282Z,26.32
2023-04-28T02:39:16.314Z,26.32
2023-04-28T02:39:46.337Z,26.32
2023-04-28T02:40:16.381Z,26.32
2023-04-28T02:40:46.398Z,26.32
2023-04-28T02:41:16.414Z,26.32
2023-04-28T02:41:46.446Z,26.32
2023-04-28T02:42:16.464Z,26.30
2023-04-28T02:42:46.492Z,26.29
2023-04-28T02:43:16.525Z,26.33
2023-04-28T02:43:46.547Z,26.30
2023-04-28T02:44:16.808Z,26.33
2023-04-28T02:44:46.688Z,26.30
2023-04-28T02:45:16.740Z,26.32
2023-04-28T02:45:46.758Z,26.32
2023-04-28T02:46:16.838Z,26.30
2023-04-28T02:46:46.812Z,26.33
2023-04-28T02:47:16.831Z,26.32
2023-04-28T02:47:46.865Z,26.27
2023-04-28T02:48:16.877Z,26.34
2023-04-28T02:48:46.899Z,26.30
2023-04-28T02:49:16.919Z,26.30
2023-04-28T02:49:46.941Z,26.32
2023-04-28T02:50:16.988Z,26.30
2023-04-28T02:50:47.010Z,26.32
2023-04-28T02:51:17.041Z,26.32
2023-04-28T02:51:47.074Z,26.32
2023-04-28T02:52:17.096Z,26.32
2023-04-28T02:52:49.091Z,26.30
2023-04-28T02:53:17.125Z,26.32
2023-04-28T02:53:47.152Z,26.30
2023-04-28T02:54:17.432Z,26.30
2023-04-28T02:54:47.211Z,26.29
2023-04-28T02:55:17.244Z,26.30
2023-04-28T02:55:47.302Z,26.30
2023-04-28T02:56:17.330Z,26.29
2023-04-28T02:56:47.366Z,26.29
2023-04-28T02:57:17.419Z,26.32
2023-04-28T02:57:47.437Z,26.32
2023-04-28T02:58:17.460Z,26.30
2023-04-28T02:58:47.485Z,26.30
2023-04-28T02:59:17.503Z,26.27
2023-04-28T02:59:47.531Z,26.27
2023-04-28T03:00:17.599Z,26.30
2023-04-28T03:00:47.696Z,26.27
2023-04-28T03:01:17.678Z,26.30
2023-04-28T03:01:47.909Z,26.30
2023-04-28T03:02:17.742Z,26.29
2023-04-28T03:02:47.743Z,26.29
2023-04-28T03:03:17.888Z,26.27
2023-04-28T03:03:48.007Z,26.29
2023-04-28T03:04:18.401Z,26.27
2023-04-28T03:04:47.912Z,26.29
2023-04-28T03:05:17.940Z,26.29
2023-04-28T03:05:47.977Z,26.27
2023-04-28T03:06:17.996Z,26.24
2023-04-28T03:06:48.031Z,26.30
2023-04-28T03:07:18.035Z,26.26
2023-04-28T03:07:48.142Z,26.27
2023-04-28T03:08:18.259Z,26.29
2023-04-28T03:08:48.373Z,26.30
2023-04-28T03:09:18.483Z,26.29
2023-04-28T03:09:48.616Z,26.29
2023-04-28T03:10:18.724Z,26.29
2023-04-28T03:10:48.711Z,26.29
2023-04-28T03:11:18.824Z,26.29
2023-04-28T03:11:48.946Z,26.30
2023-04-28T03:12:19.053Z,26.29
2023-04-28T03:12:49.163Z,26.30
2023-04-28T03:13:19.280Z,26.29
2023-04-28T03:13:49.402Z,26.29
2023-04-28T03:14:19.508Z,26.27
2023-04-28T03:14:49.637Z,26.29
2023-04-28T03:15:19.766Z,26.27
2023-04-28T03:15:49.848Z,26.27
2023-04-28T03:16:19.982Z,26.26
2023-04-28T03:16:50.176Z,26.29
2023-04-28T03:17:20.065Z,26.29
2023-04-28T03:17:50.266Z,26.27
2023-04-28T03:18:20.166Z,26.27
2023-04-28T03:18:50.198Z,26.26
2023-04-28T03:19:20.232Z,26.27
2023-04-28T03:19:50.252Z,26.29
2023-04-28T03:20:20.277Z,26.26
2023-04-28T03:20:50.307Z,26.27
2023-04-28T03:21:20.362Z,26.26
2023-04-28T03:21:50.388Z,26.26
2023-04-28T03:22:20.413Z,26.26
2023-04-28T03:22:50.437Z,26.29
2023-04-28T03:23:20.462Z,26.27
2023-04-28T03:23:50.490Z,26.27
2023-04-28T03:24:20.518Z,26.26
2023-04-28T03:24:50.543Z,26.27
2023-04-28T03:25:20.589Z,26.27
2023-04-28T03:25:50.607Z,26.26
2023-04-28T03:26:20.624Z,26.29
2023-04-28T03:26:50.650Z,26.26
2023-04-28T03:27:20.694Z,26.24
2023-04-28T03:27:50.714Z,26.24
2023-04-28T03:28:20.742Z,26.24
2023-04-28T03:28:50.760Z,26.26
2023-04-28T03:29:20.788Z,26.24
2023-04-28T03:29:50.820Z,26.26
2023-04-28T03:30:20.851Z,26.26
2023-04-28T03:30:50.924Z,26.26
2023-04-28T03:31:20.956Z,26.26
2023-04-28T03:31:51.109Z,26.26
2023-04-28T03:32:21.081Z,26.26
2023-04-28T03:32:51.129Z,26.26
2023-04-28T03:33:21.134Z,26.26
2023-04-28T03:33:51.159Z,26.24
2023-04-28T03:34:21.183Z,26.24
2023-04-28T03:34:51.220Z,26.27
2023-04-28T03:35:21.244Z,26.26
2023-04-28T03:35:51.259Z,26.26
2023-04-28T03:36:21.291Z,26.27
2023-04-28T03:36:51.322Z,26.27
2023-04-28T03:37:21.346Z,26.24
2023-04-28T03:37:51.373Z,26.24
2023-04-28T03:38:21.394Z,26.26
2023-04-28T03:38:51.428Z,26.26
2023-04-28T03:39:21.468Z,26.24
2023-04-28T03:39:51.486Z,26.24
2023-04-28T03:40:21.542Z,26.24
2023-04-28T03:40:51.564Z,26.24
2023-04-28T03:41:21.601Z,26.23
2023-04-28T03:41:51.623Z,26.24
2023-04-28T03:42:21.651Z,26.29
2023-04-28T03:42:51.671Z,26.26
2023-04-28T03:43:21.693Z,26.22
2023-04-28T03:43:51.759Z,26.24
2023-04-28T03:44:21.821Z,26.24
2023-04-28T03:44:51.850Z,26.26
2023-04-28T03:45:21.873Z,26.27
2023-04-28T03:45:51.918Z,26.29
2023-04-28T03:46:22.128Z,26.26
2023-04-28T03:46:51.942Z,26.30
2023-04-28T03:47:52.001Z,26.30
2023-04-28T03:48:22.047Z,26.33
2023-04-28T03:48:52.082Z,26.37
2023-04-28T03:49:22.115Z,26.34
2023-04-28T03:49:52.143Z,26.36
2023-04-28T03:50:23.230Z,26.37
2023-04-28T03:50:52.169Z,26.36
2023-04-28T03:51:52.305Z,26.40
2023-04-28T03:52:22.317Z,26.42
2023-04-28T03:52:52.355Z,26.43
2023-04-28T03:53:22.379Z,26.44
2023-04-28T03:53:52.401Z,26.46
2023-04-28T03:54:22.443Z,26.48
2023-04-28T03:54:52.450Z,26.47
2023-04-28T03:55:22.503Z,26.50
2023-04-28T03:55:52.501Z,26.50
2023-04-28T03:56:22.530Z,26.50
2023-04-28T03:56:52.552Z,26.53
2023-04-28T03:57:22.570Z,26.54
2023-04-28T03:57:52.603Z,26.54
2023-04-28T03:58:22.617Z,26.57
2023-04-28T03:58:52.644Z,26.54
2023-04-28T03:59:22.668Z,26.57
2023-04-28T03:59:52.699Z,26.58
2023-04-28T04:00:22.723Z,26.60
2023-04-28T04:00:52.756Z,26.60
2023-04-28T04:01:22.769Z,26.61
2023-04-28T04:01:52.812Z,26.64
2023-04-28T04:02:22.972Z,26.61
2023-04-28T04:02:53.061Z,26.64
2023-04-28T04:03:23.205Z,26.64
2023-04-28T04:03:53.143Z,26.65
2023-04-28T04:04:23.524Z,26.65
2023-04-28T04:04:53.133Z,26.65
2023-04-28T04:05:23.053Z,26.65
2023-04-28T04:05:53.206Z,26.65
2023-04-28T04:06:23.092Z,26.68
2023-04-28T04:06:53.139Z,26.65
2023-04-28T04:07:23.129Z,26.68
2023-04-28T04:07:53.246Z,26.64
2023-04-28T04:08:23.359Z,26.68
2023-04-28T04:08:53.510Z,26.67
2023-04-28T04:09:23.474Z,26.65
2023-04-28T04:09:53.589Z,26.64
2023-04-28T04:10:23.704Z,26.64
2023-04-28T04:10:53.817Z,26.65
2023-04-28T04:11:23.933Z,26.64
2023-04-28T04:11:54.044Z,26.65
2023-04-28T04:12:24.155Z,26.65
2023-04-28T04:12:54.271Z,26.67
2023-04-28T04:13:24.386Z,26.61
2023-04-28T04:13:54.500Z,26.60
2023-04-28T04:14:24.606Z,26.61
2023-04-28T04:14:54.734Z,26.60
2023-04-28T04:15:24.717Z,26.63
2023-04-28T04:15:54.857Z,26.63
2023-04-28T04:16:24.918Z,26.65
2023-04-28T04:16:54.907Z,26.64
2023-04-28T04:17:24.915Z,26.64
2023-04-28T04:17:54.949Z,26.63
2023-04-28T04:18:24.990Z,26.64
2023-04-28T04:18:55.027Z,26.65
2023-04-28T04:19:25.041Z,26.65
2023-04-28T04:19:55.084Z,26.67
2023-04-28T04:20:25.140Z,26.67
2023-04-28T04:20:55.131Z,26.68
2023-04-28T04:21:25.165Z,26.71
2023-04-28T04:21:55.189Z,26.68
2023-04-28T04:22:25.218Z,26.73
2023-04-28T04:22:55.228Z,26.71
2023-04-28T04:23:25.256Z,26.73
2023-04-28T04:23:55.273Z,26.74
2023-04-28T04:24:25.297Z,26.77
2023-04-28T04:24:55.503Z,26.77
2023-04-28T04:25:25.402Z,26.75
2023-04-28T04:26:25.544Z,26.77
2023-04-28T04:26:55.577Z,26.78
2023-04-28T04:27:25.596Z,26.80
2023-04-28T04:27:55.619Z,26.81
2023-04-28T04:28:25.644Z,26.78
2023-04-28T04:28:55.667Z,26.78
2023-04-28T04:29:25.693Z,26.80
2023-04-28T04:29:55.736Z,26.81
2023-04-28T04:30:25.756Z,26.80
2023-04-28T04:30:55.834Z,26.81
2023-04-28T04:31:25.860Z,26.82
2023-04-28T04:31:55.870Z,26.82
2023-04-28T04:32:25.917Z,26.81
2023-04-28T04:32:56.018Z,26.80
2023-04-28T04:33:26.066Z,26.82
2023-04-28T04:33:56.084Z,26.81
2023-04-28T04:34:26.114Z,26.82
2023-04-28T04:34:56.150Z,26.78
2023-04-28T04:35:26.184Z,26.74
2023-04-28T04:35:56.212Z,26.78
2023-04-28T04:36:26.236Z,26.78
2023-04-28T04:36:56.274Z,26.80
2023-04-28T04:37:26.305Z,26.80
2023-04-28T04:37:56.327Z,26.81
2023-04-28T04:38:26.349Z,26.81
2023-04-28T04:38:56.387Z,26.80
2023-04-28T04:39:26.408Z,26.81
2023-04-28T04:39:56.438Z,26.82
2023-04-28T04:40:26.469Z,26.87
2023-04-28T04:40:56.496Z,26.84
2023-04-28T04:41:26.525Z,26.87
2023-04-28T04:41:56.544Z,26.85
2023-04-28T04:42:26.575Z,26.87
2023-04-28T04:42:56.604Z,26.88
2023-04-28T04:43:26.642Z,26.82
2023-04-28T04:43:56.670Z,26.84
2023-04-28T04:44:26.699Z,26.87
2023-04-28T04:44:56.742Z,26.87
2023-04-28T04:45:26.766Z,26.90
2023-04-28T04:45:56.792Z,26.91
2023-04-28T04:46:26.837Z,26.92
2023-04-28T04:46:56.981Z,26.95
2023-04-28T04:47:26.953Z,26.94
2023-04-28T04:47:57.116Z,26.95
2023-04-28T04:48:27.050Z,26.95
2023-04-28T04:48:57.073Z,26.98
2023-04-28T04:49:27.103Z,26.99
2023-04-28T04:49:57.147Z,27.01
2023-04-28T04:50:27.168Z,27.03
2023-04-28T04:50:57.195Z,27.03
2023-04-28T04:51:27.223Z,27.03
2023-04-28T04:51:57.252Z,27.08
2023-04-28T04:52:27.280Z,27.08
2023-04-28T04:52:57.307Z,27.09
2023-04-28T04:53:27.349Z,27.09
2023-04-28T04:53:57.372Z,27.12
2023-04-28T04:54:27.389Z,27.12
2023-04-28T04:54:57.441Z,27.15
2023-04-28T04:55:27.457Z,27.13
2023-04-28T04:55:57.500Z,27.13
2023-04-28T04:56:27.512Z,27.18
2023-04-28T04:56:57.554Z,27.19
2023-04-28T04:57:27.590Z,27.18
2023-04-28T04:57:57.589Z,27.22
2023-04-28T04:58:27.616Z,27.22
2023-04-28T04:58:57.642Z,27.21
2023-04-28T04:59:27.682Z,27.23
2023-04-28T04:59:57.766Z,27.25
2023-04-28T05:00:27.794Z,27.23
2023-04-28T05:00:57.836Z,27.26
2023-04-28T05:01:27.898Z,27.26
2023-04-28T05:01:57.966Z,27.28
2023-04-28T05:02:28.060Z,27.28
2023-04-28T05:02:58.163Z,27.25
2023-04-28T05:03:28.323Z,27.28
2023-04-28T05:03:58.589Z,27.28
2023-04-28T05:04:28.501Z,27.28
2023-04-28T05:05:08.229Z,27.30
2023-04-28T05:05:28.613Z,27.29
2023-04-28T05:05:58.625Z,27.28
2023-04-28T05:06:28.658Z,27.30
2023-04-28T05:06:58.698Z,27.30
2023-04-28T05:07:28.812Z,27.30
2023-04-28T05:07:58.968Z,27.29
2023-04-28T05:08:28.927Z,27.30
2023-04-28T05:08:59.042Z,27.30
2023-04-28T05:09:29.193Z,27.29
2023-04-28T05:09:59.177Z,27.30
2023-04-28T05:10:59.254Z,27.30
2023-04-28T05:11:29.373Z,27.32
2023-04-28T05:11:59.477Z,27.32
2023-04-28T05:12:29.596Z,27.34
2023-04-28T05:12:59.722Z,27.33
2023-04-28T05:13:29.828Z,27.33
2023-04-28T05:13:59.942Z,27.33
2023-04-28T05:14:30.060Z,27.32
2023-04-28T05:15:00.181Z,27.30
2023-04-28T05:15:30.306Z,27.33
2023-04-28T05:16:00.411Z,27.33
2023-04-28T05:16:30.437Z,27.32
2023-04-28T05:17:00.456Z,27.32
2023-04-28T05:17:30.534Z,27.33
2023-04-28T05:18:00.598Z,27.32
2023-04-28T05:18:30.745Z,27.34
2023-04-28T05:19:00.739Z,27.32
2023-04-28T05:19:30.766Z,27.32
2023-04-28T05:20:00.797Z,27.30
2023-04-28T05:20:30.828Z,27.34
2023-04-28T05:21:00.850Z,27.34
2023-04-28T05:21:30.869Z,27.33
2023-04-28T05:22:00.924Z,27.30
2023-04-28T05:22:30.939Z,27.32
2023-04-28T05:23:00.976Z,27.34
2023-04-28T05:23:30.997Z,27.30
2023-04-28T05:24:01.032Z,27.30
2023-04-28T05:24:31.043Z,27.33
2023-04-28T05:25:01.074Z,27.33
2023-04-28T05:25:31.101Z,27.33
2023-04-28T05:26:01.154Z,27.32
2023-04-28T05:26:31.156Z,27.30
2023-04-28T05:27:01.201Z,27.36
2023-04-28T05:27:31.218Z,27.36
2023-04-28T05:28:01.266Z,27.36
2023-04-28T05:28:31.275Z,27.38
2023-04-28T05:29:01.320Z,27.34
2023-04-28T05:29:31.349Z,27.36
2023-04-28T05:30:01.416Z,27.32
2023-04-28T05:30:31.466Z,27.33
2023-04-28T05:31:01.497Z,27.36
2023-04-28T05:31:31.548Z,27.36
2023-04-28T05:32:01.638Z,27.33
2023-04-28T05:32:31.723Z,27.33
2023-04-28T05:33:01.761Z,27.33
2023-04-28T05:33:31.831Z,27.38
2023-04-28T05:34:01.883Z,27.39
2023-04-28T05:34:31.911Z,27.42
2023-04-28T05:35:01.972Z,27.42
2023-04-28T05:35:32.016Z,27.43
2023-04-28T05:36:02.021Z,27.45
2023-04-28T05:36:32.087Z,27.46
2023-04-28T05:37:02.113Z,27.46
2023-04-28T05:37:32.134Z,27.49
2023-04-28T05:38:02.159Z,27.50
2023-04-28T05:38:32.196Z,27.52
2023-04-28T05:39:02.218Z,27.53
2023-04-28T05:39:32.248Z,27.56
2023-04-28T05:40:02.307Z,27.57
2023-04-28T05:40:32.322Z,27.59
2023-04-28T05:41:02.364Z,27.60
2023-04-28T05:41:32.375Z,27.61
2023-04-28T05:42:02.439Z,27.63
2023-04-28T05:42:32.503Z,27.61
2023-04-28T05:43:02.543Z,27.63
2023-04-28T05:43:32.551Z,27.63
2023-04-28T05:44:02.577Z,27.63
2023-04-28T05:44:32.627Z,27.66
2023-04-28T05:45:02.664Z,27.66
2023-04-28T05:45:32.718Z,27.66
2023-04-28T05:46:02.793Z,27.64
2023-04-28T05:46:32.867Z,27.66
2023-04-28T05:47:02.936Z,27.69
2023-04-28T05:47:33.005Z,27.66
2023-04-28T05:48:03.059Z,27.66
2023-04-28T05:48:33.064Z,27.69
2023-04-28T05:49:03.092Z,27.69
2023-04-28T05:49:33.139Z,27.69
2023-04-28T05:50:03.151Z,27.70
2023-04-28T05:50:33.194Z,27.70
2023-04-28T05:51:03.228Z,27.70
2023-04-28T05:51:33.243Z,27.70
2023-04-28T05:52:03.270Z,27.71
2023-04-28T05:52:33.292Z,27.69
2023-04-28T05:53:03.314Z,27.70
2023-04-28T05:53:33.340Z,27.67
2023-04-28T05:54:03.365Z,27.70
2023-04-28T05:54:33.392Z,27.67
2023-04-28T05:55:03.440Z,27.69
2023-04-28T05:55:33.460Z,27.69
2023-04-28T05:56:03.479Z,27.69
2023-04-28T05:56:33.509Z,27.69
2023-04-28T05:57:03.543Z,27.67
2023-04-28T05:57:41.768Z,27.66
2023-04-28T05:58:03.590Z,27.64
2023-04-28T05:58:33.614Z,27.64
2023-04-28T05:59:03.637Z,27.64
2023-04-28T05:59:33.662Z,27.63
2023-04-28T06:00:03.688Z,27.67
2023-04-28T06:00:33.715Z,27.63
2023-04-28T06:01:03.737Z,27.66
2023-04-28T06:01:33.772Z,27.60
2023-04-28T06:02:03.832Z,27.63
2023-04-28T06:02:34.055Z,27.60
2023-04-28T06:03:04.046Z,27.60
2023-04-28T06:03:34.170Z,27.59
2023-04-28T06:04:04.345Z,27.57
2023-04-28T06:04:34.478Z,27.56
2023-04-28T06:05:04.364Z,27.56
2023-04-28T06:05:34.436Z,27.53
2023-04-28T06:06:06.797Z,27.54
2023-04-28T06:06:34.348Z,27.54
2023-04-28T06:07:04.459Z,27.54
2023-04-28T06:07:34.512Z,27.52
2023-04-28T06:08:04.514Z,27.52
2023-04-28T06:08:34.622Z,27.54
2023-04-28T06:09:04.641Z,27.50
2023-04-28T06:09:34.729Z,27.48
2023-04-28T06:10:04.856Z,27.48
2023-04-28T06:10:34.869Z,27.45
2023-04-28T06:11:04.949Z,27.42
2023-04-28T06:11:35.073Z,27.40
2023-04-28T06:12:05.182Z,27.40
2023-04-28T06:12:35.307Z,27.42
2023-04-28T06:13:05.418Z,27.40
2023-04-28T06:13:35.528Z,27.43
2023-04-28T06:14:05.532Z,27.43
2023-04-28T06:14:35.678Z,27.43
2023-04-28T06:15:05.750Z,27.42
2023-04-28T06:15:35.875Z,27.46
2023-04-28T06:16:05.820Z,27.45
2023-04-28T06:16:35.817Z,27.45
2023-04-28T06:17:05.903Z,27.46
2023-04-28T06:17:36.021Z,27.48
2023-04-28T06:18:06.124Z,27.49
2023-04-28T06:18:36.164Z,27.48
2023-04-28T06:19:06.205Z,27.53
2023-04-28T06:19:36.223Z,27.50
2023-04-28T06:20:06.296Z,27.54
2023-04-28T06:20:36.325Z,27.52
2023-04-28T06:21:06.345Z,27.53
2023-04-28T06:21:36.375Z,27.56
2023-04-28T06:22:06.400Z,27.54
2023-04-28T06:22:36.423Z,27.54
2023-04-28T06:23:06.456Z,27.57
2023-04-28T06:23:36.486Z,27.54
2023-04-28T06:24:06.518Z,27.57
2023-04-28T06:24:36.527Z,27.56
2023-04-28T06:25:06.569Z,27.59
2023-04-28T06:25:36.589Z,27.59
2023-04-28T06:26:06.624Z,27.60
2023-04-28T06:26:36.636Z,27.57
2023-04-28T06:27:06.660Z,27.60
2023-04-28T06:27:36.692Z,27.57
2023-04-28T06:28:06.713Z,27.57
2023-04-28T06:28:36.763Z,27.56
2023-04-28T06:29:06.787Z,27.57